Time;durP1;ratioP1;P1;durP2;ratioP2;P2;SDS_P1;SDS_P2;PMS_P1;PMS_P2;Temp;Humidity;BMP_temperature;BMP_pressure;BME280_temperature;BME280_humidity;BME280_pressure;Samples;Min_cycle;Max_cycle;Signal;HPM_P1;HPM_P2
2022/06/14 00:01:10;;;;;;;11.33;2.87;;;;;;;9.18;100.00;100723.84;7393989;19;20422;-54
2022/06/14 00:03:43;;;;;;;15.70;3.30;;;;;;;9.12;100.00;100727.00;7390773;19;21486;-57
2022/06/14 00:06:18;;;;;;;12.10;2.97;;;;;;;9.12;100.00;100724.44;7396596;19;20387;-56
2022/06/14 00:08:47;;;;;;;10.10;2.53;;;;;;;9.10;100.00;100728.63;7389464;19;20501;-56
2022/06/14 00:11:19;;;;;;;7.50;2.73;;;;;;;9.09;100.00;100731.13;7394390;19;20437;-56
2022/06/14 00:13:50;;;;;;;11.23;2.60;;;;;;;9.02;100.00;100733.41;7389229;19;20403;-57
2022/06/14 00:16:20;;;;;;;13.70;2.53;;;;;;;9.05;100.00;100735.25;7399199;19;20392;-57
2022/06/14 00:18:49;;;;;;;13.03;2.70;;;;;;;9.03;100.00;100737.75;7389150;19;20423;-58
2022/06/14 00:21:22;;;;;;;9.60;2.60;;;;;;;9.02;100.00;100745.38;7393788;19;21001;-57
2022/06/14 00:23:52;;;;;;;15.40;4.17;;;;;;;9.03;100.00;100737.75;7388413;19;20437;-58
2022/06/14 00:26:22;;;;;;;12.87;2.53;;;;;;;9.07;100.00;100743.03;7395706;19;20391;-58
2022/06/14 00:28:51;;;;;;;7.70;2.30;;;;;;;8.98;100.00;100741.78;7388905;19;20421;-57
2022/06/14 00:31:23;;;;;;;10.47;2.87;;;;;;;9.00;100.00;100753.03;7394279;19;20490;-57
2022/06/14 00:33:53;;;;;;;7.73;2.90;;;;;;;9.02;100.00;100754.00;7389789;19;20411;-58
2022/06/14 00:36:28;;;;;;;9.13;3.10;;;;;;;9.00;100.00;100763.34;7394953;19;20388;-57
2022/06/14 00:38:59;;;;;;;7.53;2.80;;;;;;;9.01;100.00;100756.47;7388140;19;20415;-57
2022/06/14 00:41:38;;;;;;;10.73;2.67;;;;;;;8.99;100.00;100750.41;7394487;19;20399;-57
2022/06/14 00:44:09;;;;;;;11.77;3.07;;;;;;;8.98;100.00;100754.66;7384913;19;20411;-55
2022/06/14 00:46:41;;;;;;;12.17;3.20;;;;;;;8.99;100.00;100759.00;7390523;19;20417;-56
2022/06/14 00:49:16;;;;;;;7.67;3.30;;;;;;;8.99;100.00;100768.41;7381876;19;20526;-55
2022/06/14 00:51:53;;;;;;;11.33;3.50;;;;;;;9.02;100.00;100759.16;7391648;19;20929;-57
2022/06/14 00:54:25;;;;;;;7.90;2.70;;;;;;;9.05;100.00;100754.16;7385364;19;20517;-57
2022/06/14 00:56:56;;;;;;;9.70;2.80;;;;;;;9.11;100.00;100756.13;7392741;19;20399;-59
2022/06/14 00:59:30;;;;;;;7.53;2.83;;;;;;;9.10;100.00;100753.47;7384243;19;20415;-58
2022/06/14 01:02:06;;;;;;;5.33;2.40;;;;;;;9.12;100.00;100759.59;7392608;19;20392;-57
2022/06/14 01:04:37;;;;;;;8.30;2.50;;;;;;;9.13;100.00;100764.78;7387554;19;20963;-56
2022/06/14 01:07:13;;;;;;;11.33;3.27;;;;;;;9.16;100.00;100758.91;7391461;19;20453;-56
2022/06/14 01:09:45;;;;;;;12.10;2.67;;;;;;;9.16;100.00;100766.63;7384374;19;20759;-58
2022/06/14 01:12:17;;;;;;;8.40;2.73;;;;;;;9.15;100.00;100764.88;7391440;19;20393;-58
2022/06/14 01:14:52;;;;;;;9.87;3.07;;;;;;;9.21;100.00;100765.16;7383455;19;20437;-57
2022/06/14 01:17:22;;;;;;;10.63;2.30;;;;;;;9.20;100.00;100763.41;7391111;19;20387;-56
2022/06/14 01:19:52;;;;;;;7.27;2.30;;;;;;;9.19;100.00;100764.22;7381825;19;20417;-57
2022/06/14 01:22:35;;;;;;;9.30;2.40;;;;;;;9.21;100.00;100767.75;7391040;19;20392;-56
2022/06/14 01:25:05;;;;;;;15.20;2.47;;;;;;;9.28;100.00;100767.22;7384800;19;21011;-57
2022/06/14 01:27:36;;;;;;;11.77;2.50;;;;;;;9.28;100.00;100764.66;7390004;19;20495;-57
2022/06/14 01:30:14;;;;;;;9.93;2.50;;;;;;;9.22;100.00;100761.78;7386560;19;20435;-58
2022/06/14 01:32:47;;;;;;;10.57;3.30;;;;;;;9.26;100.00;100776.56;7394458;19;20387;-57
2022/06/14 01:35:19;;;;;;;19.27;3.70;;;;;;;9.30;100.00;100767.28;7386241;19;20439;-56
2022/06/14 01:37:53;;;;;;;10.50;2.87;;;;;;;9.25;100.00;100768.78;7398804;19;20436;-56
2022/06/14 01:40:28;;;;;;;11.17;3.00;;;;;;;9.26;100.00;100767.94;7385024;19;20426;-58
2022/06/14 01:43:11;;;;;;;9.67;2.97;;;;;;;9.24;100.00;100767.91;7393033;19;20395;-57
2022/06/14 01:45:47;;;;;;;8.63;2.40;;;;;;;9.26;100.00;100763.69;7392833;19;20447;-57
2022/06/14 01:48:24;;;;;;;6.43;2.50;;;;;;;9.24;100.00;100767.91;7386830;19;20414;-57
2022/06/14 01:54:00;;;;;;;10.33;2.97;;;;;;;9.30;100.00;100777.59;7386526;19;20426;-57
2022/06/14 01:56:38;;;;;;;8.27;2.47;;;;;;;9.32;100.00;100771.72;7393833;19;20788;-58
2022/06/14 01:59:15;;;;;;;10.80;3.40;;;;;;;9.27;100.00;100772.28;7394083;19;20425;-58
2022/06/14 02:01:50;;;;;;;10.20;2.77;;;;;;;9.26;100.00;100783.41;7400909;19;20380;-57
2022/06/14 02:04:40;;;;;;;7.87;3.20;;;;;;;9.28;100.00;100787.81;7395027;19;20422;-57
2022/06/14 02:07:17;;;;;;;20.17;2.47;;;;;;;9.30;100.00;100791.38;7400715;19;20917;-55
2022/06/14 02:09:58;;;;;;;9.53;2.77;;;;;;;9.34;100.00;100789.81;7392930;19;20413;-57
2022/06/14 02:12:41;;;;;;;17.63;4.37;;;;;;;9.38;100.00;100796.00;7401051;19;20379;-53
2022/06/14 02:15:16;;;;;;;16.60;3.53;;;;;;;9.32;100.00;100787.16;7392067;19;20438;-56
2022/06/14 02:17:51;;;;;;;14.93;4.00;;;;;;;9.35;100.00;100791.59;7400642;19;20385;-56
2022/06/14 02:20:23;;;;;;;9.67;3.00;;;;;;;9.30;100.00;100795.63;7391373;19;20963;-56
2022/06/14 02:22:56;;;;;;;11.30;2.97;;;;;;;9.32;100.00;100794.88;7400184;19;20386;-54
2022/06/14 02:25:32;;;;;;;10.00;4.37;;;;;;;9.35;100.00;100800.97;7392933;19;20762;-57
2022/06/14 02:28:04;;;;;;;7.70;2.33;;;;;;;9.31;100.00;100803.44;7400042;19;20387;-57
2022/06/14 02:30:39;;;;;;;10.67;2.77;;;;;;;9.23;100.00;100802.16;7396855;19;20411;-54
2022/06/14 02:33:13;;;;;;;22.73;2.90;;;;;;;9.21;100.00;100803.78;7393836;19;20813;-55
2022/06/14 02:35:47;;;;;;;5.80;2.20;;;;;;;9.25;100.00;100803.13;7396593;19;20896;-57
2022/06/14 02:38:20;;;;;;;13.27;2.90;;;;;;;9.24;100.00;100814.25;7395908;19;20946;-56
2022/06/14 02:40:55;;;;;;;9.43;2.23;;;;;;;9.13;100.00;100802.53;7401142;19;20423;-55
2022/06/14 02:43:29;;;;;;;12.23;2.67;;;;;;;9.09;100.00;100805.75;7392677;19;20462;-58
2022/06/14 02:46:01;;;;;;;15.40;4.13;;;;;;;9.05;100.00;100808.22;7399181;19;20410;-56
2022/06/14 02:48:36;;;;;;;5.87;2.33;;;;;;;9.04;100.00;100814.13;7391574;19;20411;-55
2022/06/14 02:51:09;;;;;;;9.80;2.97;;;;;;;9.02;100.00;100805.47;7395880;19;20961;-53
2022/06/14 02:53:42;;;;;;;6.77;2.47;;;;;;;8.96;100.00;100817.16;7391138;19;20775;-56
2022/06/14 02:56:18;;;;;;;10.73;2.60;;;;;;;8.97;100.00;100819.78;7396204;19;20380;-55
2022/06/14 02:58:51;;;;;;;13.00;2.43;;;;;;;8.97;100.00;100827.50;7392040;19;20776;-58
2022/06/14 03:01:24;;;;;;;9.60;2.30;;;;;;;8.91;100.00;100834.94;7395966;19;20430;-56
2022/06/14 03:03:56;;;;;;;8.13;2.30;;;;;;;8.93;100.00;100838.47;7392133;19;20689;-57
2022/06/14 03:06:32;;;;;;;7.87;2.53;;;;;;;9.00;100.00;100842.22;7398730;19;21064;-55
2022/06/14 03:09:06;;;;;;;8.63;2.30;;;;;;;9.01;100.00;100841.41;7389708;19;20426;-58
2022/06/14 03:11:59;;;;;;;10.00;2.47;;;;;;;9.01;100.00;100839.75;7398122;19;20721;-57
2022/06/14 03:14:36;;;;;;;12.80;2.47;;;;;;;9.02;100.00;100849.22;7394333;19;20431;-58
2022/06/14 03:17:16;;;;;;;6.40;2.23;;;;;;;8.97;100.00;100850.69;7398082;19;20708;-55
2022/06/14 03:19:52;;;;;;;12.83;2.57;;;;;;;8.93;100.00;100846.19;7390000;19;20414;-56
2022/06/14 03:22:27;;;;;;;14.00;3.03;;;;;;;9.00;100.00;100844.81;7397686;19;20387;-58
2022/06/14 03:25:00;;;;;;;14.73;3.13;;;;;;;9.06;100.00;100834.81;7390401;19;20414;-57
2022/06/14 03:27:36;;;;;;;8.20;2.30;;;;;;;9.01;100.00;100842.31;7397778;19;20403;-57
2022/06/14 03:30:11;;;;;;;8.00;2.50;;;;;;;9.08;100.00;100846.06;7389141;19;20437;-57
2022/06/14 03:32:47;;;;;;;9.70;2.50;;;;;;;9.09;100.00;100839.22;7397833;19;20403;-56
2022/06/14 03:35:20;;;;;;;14.77;2.70;;;;;;;9.12;100.00;100840.25;7389928;19;20441;-58
2022/06/14 03:37:50;;;;;;;12.27;3.40;;;;;;;9.19;100.00;100832.03;7397573;19;20391;-57
2022/06/14 03:40:21;;;;;;;5.77;2.30;;;;;;;9.13;100.00;100836.00;7389307;19;20411;-58
2022/06/14 03:42:54;;;;;;;9.20;3.50;;;;;;;9.16;100.00;100839.63;7397402;19;20914;-58
2022/06/14 03:45:28;;;;;;;11.17;3.27;;;;;;;9.18;100.00;100839.69;7390564;19;20423;-57
2022/06/14 03:47:58;;;;;;;10.80;2.40;;;;;;;9.21;100.00;100838.94;7400525;19;20402;-57
2022/06/14 03:50:32;;;;;;;10.43;2.90;;;;;;;9.22;100.00;100836.44;7387696;19;20828;-57
2022/06/14 03:53:11;;;;;;;4.63;2.03;;;;;;;9.22;100.00;100839.00;7397448;19;20383;-58
2022/06/14 03:55:50;;;;;;;10.00;2.33;;;;;;;9.20;100.00;100832.91;7395322;19;20494;-57
2022/06/14 03:58:48;;;;;;;7.60;2.47;;;;;;;9.23;100.00;100835.63;7390504;19;20390;-57
2022/06/14 04:01:22;;;;;;;8.37;2.27;;;;;;;9.28;100.00;100834.16;7394018;19;20427;-57
2022/06/14 04:04:13;;;;;;;10.70;3.17;;;;;;;9.29;100.00;100843.66;7390158;19;20399;-56
2022/06/14 04:06:52;;;;;;;8.83;2.60;;;;;;;9.28;100.00;100834.16;7396932;19;20942;-58
2022/06/14 04:09:32;;;;;;;6.33;2.83;;;;;;;9.31;100.00;100842.06;7388095;19;20433;-55
2022/06/14 04:12:08;;;;;;;6.10;2.30;;;;;;;9.30;100.00;100837.72;7396186;19;20403;-55
2022/06/14 04:14:47;;;;;;;10.53;2.53;;;;;;;9.34;100.00;100835.28;7389132;19;20423;-56
2022/06/14 04:17:21;;;;;;;10.63;2.50;;;;;;;9.38;100.00;100844.91;7396226;19;20384;-57
2022/06/14 04:20:06;;;;;;;6.47;2.60;;;;;;;9.45;100.00;100844.41;7385432;19;20969;-56
2022/06/14 04:22:43;;;;;;;15.03;3.53;;;;;;;9.53;100.00;100834.47;7396113;19;20388;-56
2022/06/14 04:25:16;;;;;;;20.53;3.23;;;;;;;9.56;100.00;100842.31;7387947;19;20421;-57
2022/06/14 04:27:50;;;;;;;8.50;2.17;;;;;;;9.56;100.00;100832.91;7396015;19;20411;-57
2022/06/14 04:30:26;;;;;;;6.33;2.50;;;;;;;9.55;100.00;100840.56;7386866;19;20933;-57
2022/06/14 04:32:59;;;;;;;6.20;2.33;;;;;;;9.63;100.00;100843.50;7396326;19;20463;-56
2022/06/14 04:35:33;;;;;;;6.70;2.23;;;;;;;9.67;100.00;100840.25;7388228;19;20423;-56
2022/06/14 04:38:05;;;;;;;10.77;2.80;;;;;;;9.65;100.00;100847.91;7395322;19;20390;-58
2022/06/14 04:40:40;;;;;;;10.17;2.07;;;;;;;9.70;100.00;100845.56;7392999;19;20410;-57
2022/06/14 04:43:12;;;;;;;10.60;3.03;;;;;;;9.81;100.00;100846.06;7389339;19;20922;-55
2022/06/14 04:45:48;;;;;;;5.00;2.33;;;;;;;9.95;100.00;100841.53;7394746;19;20383;-58
2022/06/14 04:48:21;;;;;;;9.50;3.03;;;;;;;10.06;100.00;100842.88;7386421;19;20375;-52
2022/06/14 04:50:54;;;;;;;6.47;2.53;;;;;;;10.22;100.00;100851.31;7393157;19;20964;-56
2022/06/14 04:53:26;;;;;;;6.77;2.23;;;;;;;10.37;100.00;100840.81;7387700;19;20793;-56
2022/06/14 04:55:59;;;;;;;13.90;4.00;;;;;;;10.52;100.00;100844.06;7394728;19;20786;-56
2022/06/14 04:58:32;;;;;;;14.40;3.27;;;;;;;10.67;100.00;100843.84;7387127;19;20419;-58
2022/06/14 05:01:08;;;;;;;11.20;2.63;;;;;;;10.97;100.00;100842.50;7392841;19;20488;-58
2022/06/14 05:03:41;;;;;;;9.03;2.23;;;;;;;11.06;100.00;100834.25;7387704;19;20474;-57
2022/06/14 05:06:13;;;;;;;8.73;2.13;;;;;;;11.09;100.00;100834.41;7394421;19;20455;-57
2022/06/14 05:08:49;;;;;;;8.77;2.33;;;;;;;11.25;100.00;100832.41;7388411;19;20498;-54
2022/06/14 05:11:22;;;;;;;7.50;2.77;;;;;;;11.23;100.00;100834.94;7392820;19;20948;-56
2022/06/14 05:13:58;;;;;;;7.17;2.30;;;;;;;11.28;100.00;100829.97;7387793;19;20409;-56
2022/06/14 05:16:34;;;;;;;19.83;7.30;;;;;;;11.44;100.00;100832.34;7393307;19;20385;-53
2022/06/14 05:19:09;;;;;;;19.53;2.80;;;;;;;11.43;100.00;100833.16;7387471;19;20427;-56
2022/06/14 05:21:45;;;;;;;7.97;3.47;;;;;;;11.34;100.00;100823.34;7398144;19;20375;-58
2022/06/14 05:24:15;;;;;;;7.87;2.23;;;;;;;11.31;100.00;100840.41;7386544;19;20427;-58
2022/06/14 05:27:00;;;;;;;8.73;2.07;;;;;;;11.21;100.00;100840.06;7394155;19;20874;-57
2022/06/14 05:29:37;;;;;;;7.93;2.13;;;;;;;11.25;100.00;100845.34;7386396;19;20461;-56
2022/06/14 05:32:15;;;;;;;10.50;2.37;;;;;;;11.34;100.00;100849.16;7393205;19;20475;-52
2022/06/14 05:34:55;;;;;;;12.17;2.73;;;;;;;11.35;100.00;100860.41;7387233;19;20412;-55
2022/06/14 05:37:29;;;;;;;10.10;2.70;;;;;;;11.31;100.00;100855.91;7392108;19;20393;-54
2022/06/14 05:40:02;;;;;;;17.93;2.50;;;;;;;11.30;100.00;100864.50;7384864;19;20442;-56
2022/06/14 05:42:34;;;;;;;9.00;2.90;;;;;;;11.24;100.00;100869.41;7393977;19;20397;-58
2022/06/14 05:45:06;;;;;;;7.73;2.77;;;;;;;11.33;100.00;100870.66;7387034;19;20432;-58
2022/06/14 05:47:41;;;;;;;8.13;2.00;;;;;;;11.28;100.00;100866.13;7393453;19;20396;-58
2022/06/14 05:50:16;;;;;;;9.00;2.93;;;;;;;11.25;100.00;100876.31;7385068;19;20452;-58
2022/06/14 05:52:50;;;;;;;10.30;2.93;;;;;;;11.18;100.00;100870.06;7393124;19;20387;-55
2022/06/14 05:55:24;;;;;;;9.83;3.30;;;;;;;11.24;100.00;100879.72;7385816;19;20961;-56
2022/06/14 05:57:57;;;;;;;10.43;2.63;;;;;;;11.18;100.00;100878.66;7390965;19;20926;-57
2022/06/14 06:00:30;;;;;;;9.87;2.60;;;;;;;11.18;100.00;100882.97;7384445;19;20610;-58
2022/06/14 06:03:06;;;;;;;14.63;3.40;;;;;;;11.11;100.00;100888.66;7393352;19;20385;-56
2022/06/14 06:05:40;;;;;;;14.33;3.83;;;;;;;11.16;100.00;100893.22;7392460;19;20408;-54
2022/06/14 06:08:15;;;;;;;13.60;2.80;;;;;;;11.17;100.00;100894.97;7386012;19;20388;-57
2022/06/14 06:10:48;;;;;;;9.33;3.13;;;;;;;11.26;100.00;100899.66;7390139;19;20413;-57
2022/06/14 06:13:22;;;;;;;11.57;2.60;;;;;;;11.32;100.00;100899.00;7387039;19;20394;-58
2022/06/14 06:15:56;;;;;;;11.00;2.67;;;;;;;11.34;100.00;100897.38;7392707;19;20460;-53
2022/06/14 06:18:31;;;;;;;16.30;2.87;;;;;;;11.51;100.00;100899.75;7386242;19;20432;-57
2022/06/14 06:21:06;;;;;;;12.90;2.97;;;;;;;11.57;100.00;100892.25;7389820;19;20954;-58
2022/06/14 06:23:40;;;;;;;12.50;2.70;;;;;;;11.70;100.00;100883.28;7383971;19;20486;-58
2022/06/14 06:26:13;;;;;;;10.17;2.80;;;;;;;11.74;100.00;100892.91;7392491;19;20390;-58
2022/06/14 06:28:47;;;;;;;13.40;2.50;;;;;;;11.84;100.00;100899.34;7385109;19;20509;-57
2022/06/14 06:31:20;;;;;;;12.70;3.43;;;;;;;12.13;100.00;100886.66;7390821;19;20426;-55
2022/06/14 06:33:56;;;;;;;8.43;2.37;;;;;;;12.05;100.00;100888.09;7384715;19;20436;-57
2022/06/14 06:36:33;;;;;;;10.43;2.80;;;;;;;12.14;100.00;100875.47;7391518;19;20392;-56
2022/06/14 06:39:10;;;;;;;7.07;2.33;;;;;;;12.05;100.00;100875.16;7386182;19;20910;-53
2022/06/14 06:41:55;;;;;;;12.73;3.10;;;;;;;12.05;100.00;100878.59;7391976;19;20394;-58
2022/06/14 06:44:33;;;;;;;8.90;2.73;;;;;;;12.22;100.00;100876.66;7387972;19;20931;-57
2022/06/14 06:47:09;;;;;;;10.87;2.33;;;;;;;12.26;100.00;100872.50;7399070;19;21432;-57
2022/06/14 06:49:52;;;;;;;14.83;2.93;;;;;;;12.27;100.00;100877.69;7389444;19;20848;-57
2022/06/14 06:52:24;;;;;;;9.73;3.27;;;;;;;12.65;100.00;100876.44;7398942;19;20503;-57
2022/06/14 06:54:58;;;;;;;14.20;3.37;;;;;;;12.79;100.00;100867.47;7391900;19;20856;-58
2022/06/14 06:57:31;;;;;;;9.03;2.40;;;;;;;12.83;100.00;100856.34;7397592;19;20394;-56
2022/06/14 07:00:01;;;;;;;10.50;2.53;;;;;;;12.98;100.00;100854.25;7390935;19;20420;-58
2022/06/14 07:02:35;;;;;;;8.13;2.87;;;;;;;12.92;100.00;100850.63;7399185;19;20747;-53
2022/06/14 07:05:14;;;;;;;8.30;2.47;;;;;;;12.77;100.00;100858.75;7392916;19;20412;-58
2022/06/14 07:07:50;;;;;;;13.53;2.40;;;;;;;13.00;100.00;100850.88;7398673;19;20387;-57
2022/06/14 07:10:27;;;;;;;11.80;2.63;;;;;;;13.08;100.00;100841.63;7389614;19;20772;-59
2022/06/14 07:13:00;;;;;;;11.07;2.80;;;;;;;13.25;100.00;100843.91;7398388;19;20398;-58
2022/06/14 07:15:34;;;;;;;7.17;2.40;;;;;;;13.28;100.00;100841.41;7392000;19;20412;-58
2022/06/14 07:18:17;;;;;;;6.07;1.90;;;;;;;13.29;100.00;100850.97;7396583;19;20409;-59
2022/06/14 07:21:02;;;;;;;9.97;2.73;;;;;;;13.04;100.00;100850.16;7394389;19;20526;-55
2022/06/14 07:23:40;;;;;;;7.00;2.33;;;;;;;13.31;100.00;100857.06;7389890;19;20792;-56
2022/06/14 07:26:18;;;;;;;8.50;2.30;;;;;;;13.49;100.00;100858.53;7397791;19;20400;-57
2022/06/14 07:29:01;;;;;;;9.90;2.33;;;;;;;13.22;100.00;100868.00;7389854;19;20412;-58
2022/06/14 07:31:37;;;;;;;7.30;2.20;;;;;;;13.36;100.00;100862.38;7397877;19;20416;-52
2022/06/14 07:34:08;;;;;;;10.90;2.57;;;;;;;13.33;100.00;100865.75;7391359;19;20403;-57
2022/06/14 07:36:50;;;;;;;9.50;2.87;;;;;;;13.74;100.00;100877.44;7397591;19;20387;-57
2022/06/14 07:39:26;;;;;;;13.20;2.87;;;;;;;13.87;100.00;100879.56;7389609;19;20427;-57
2022/06/14 07:42:01;;;;;;;13.80;2.20;;;;;;;13.64;100.00;100892.69;7397690;19;20404;-57
2022/06/14 07:44:37;;;;;;;7.17;2.20;;;;;;;13.53;100.00;100901.81;7389469;19;20405;-57
2022/06/14 07:47:10;;;;;;;6.50;2.50;;;;;;;13.56;100.00;100907.13;7396845;19;20403;-56
2022/06/14 07:49:54;;;;;;;8.97;2.50;;;;;;;13.66;100.00;100910.00;7388161;19;20441;-57
2022/06/14 07:52:32;;;;;;;6.77;2.00;;;;;;;13.72;100.00;100907.59;7396965;19;20927;-55
2022/06/14 07:55:07;;;;;;;10.10;2.17;;;;;;;13.62;100.00;100924.56;7387288;19;20428;-59
2022/06/14 07:57:40;;;;;;;10.87;2.07;;;;;;;13.53;100.00;100922.56;7396197;19;20360;-58
2022/06/14 08:03:02;;;;;;;7.87;2.20;;;;;;;13.66;100.00;100928.13;7396882;19;20772;-58
2022/06/14 08:05:36;;;;;;;19.63;2.27;;;;;;;13.68;100.00;100942.91;7396105;19;20414;-57
2022/06/14 08:08:10;;;;;;;11.00;1.90;;;;;;;13.77;100.00;100942.34;7396812;19;20405;-58
2022/06/14 08:10:44;;;;;;;13.33;2.20;;;;;;;13.78;100.00;100941.50;7393510;19;20431;-57
2022/06/14 08:13:18;;;;;;;14.03;3.13;;;;;;;13.74;100.00;100947.44;7388540;19;20919;-58
2022/06/14 08:15:52;;;;;;;10.70;4.33;;;;;;;14.16;100.00;100939.19;7397361;19;20383;-59
2022/06/14 08:18:28;;;;;;;12.93;2.47;;;;;;;14.17;100.00;100935.75;7387461;19;20421;-57
2022/06/14 08:21:00;;;;;;;13.67;2.37;;;;;;;14.02;100.00;100937.91;7393688;19;20428;-57
2022/06/14 08:23:35;;;;;;;6.20;1.70;;;;;;;13.72;100.00;100949.97;7388153;19;20419;-56
2022/06/14 08:26:07;;;;;;;5.30;1.73;;;;;;;13.59;100.00;100946.09;7396159;19;20458;-58
2022/06/14 08:28:40;;;;;;;9.70;2.07;;;;;;;13.51;100.00;100947.56;7389223;19;20399;-57
2022/06/14 08:31:15;;;;;;;11.50;2.10;;;;;;;13.48;100.00;100958.72;7393560;19;20435;-58
2022/06/14 08:33:48;;;;;;;9.53;2.23;;;;;;;13.50;100.00;100964.81;7387775;19;20424;-55
2022/06/14 08:36:27;;;;;;;7.13;2.13;;;;;;;13.55;100.00;100956.31;7394237;19;20383;-59
2022/06/14 08:39:03;;;;;;;9.37;2.70;;;;;;;13.53;100.00;100961.44;7386574;19;20523;-59
2022/06/14 08:41:44;;;;;;;26.50;4.87;;;;;;;13.70;100.00;100956.81;7395588;19;20424;-58
2022/06/14 08:44:19;;;;;;;18.27;5.97;;;;;;;13.78;100.00;100970.00;7388911;19;20405;-58
2022/06/14 08:46:59;;;;;;;11.53;2.63;;;;;;;13.84;100.00;100964.16;7396167;19;20385;-59
2022/06/14 08:49:44;;;;;;;17.40;4.23;;;;;;;14.01;100.00;100968.13;7386011;19;20426;-56
2022/06/14 08:52:47;;;;;;;13.80;2.20;;;;;;;14.22;100.00;100955.78;7391899;19;20769;-58
2022/06/14 08:55:56;;;;;;;16.47;3.80;;;;;;;14.64;100.00;100955.28;7387867;19;20431;-59
2022/06/14 08:58:55;;;;;;;26.63;6.73;;;;;;;14.81;100.00;100941.91;7385358;19;20430;-58
2022/06/14 09:01:37;;;;;;;10.50;2.70;;;;;;;14.63;100.00;100953.53;7392886;19;20513;-57
2022/06/14 09:04:19;;;;;;;6.50;1.87;;;;;;;14.68;100.00;100953.66;7365988;19;20412;-58
2022/06/14 09:07:13;;;;;;;12.17;1.80;;;;;;;15.04;100.00;100950.34;7390673;19;20715;-59
2022/06/14 09:10:09;;;;;;;17.00;2.30;;;;;;;15.16;100.00;100949.75;7386039;19;20817;-58
2022/06/14 09:13:14;;;;;;;10.20;4.90;;;;;;;15.42;100.00;100938.28;7394341;19;20394;-58
2022/06/14 09:16:07;;;;;;;9.27;2.57;;;;;;;15.28;100.00;100954.38;7393605;19;20407;-56
2022/06/14 09:19:00;;;;;;;18.17;5.80;;;;;;;15.10;100.00;100947.00;7385581;19;20437;-59
2022/06/14 09:21:52;;;;;;;18.53;7.20;;;;;;;15.05;100.00;100957.28;7393147;19;20400;-58
2022/06/14 09:24:41;;;;;;;4.67;1.60;;;;;;;15.01;100.00;100958.03;7386580;19;20456;-59
2022/06/14 09:27:18;;;;;;;6.83;1.67;;;;;;;15.13;100.00;100962.69;7393794;19;21161;-58
2022/06/14 09:30:15;;;;;;;6.17;1.90;;;;;;;15.09;100.00;100972.09;7386066;19;20426;-57
2022/06/14 09:33:15;;;;;;;7.53;2.40;;;;;;;15.14;100.00;100968.75;7397519;19;20467;-57
2022/06/14 09:36:15;;;;;;;7.97;1.70;;;;;;;15.29;100.00;100969.16;7392741;19;20837;-58
2022/06/14 09:39:04;;;;;;;21.33;5.07;;;;;;;15.33;100.00;100970.97;7386406;19;20418;-54
2022/06/14 09:41:52;;;;;;;18.23;3.90;;;;;;;15.38;100.00;100976.28;7393383;19;20981;-53
2022/06/14 09:44:48;;;;;;;10.30;2.80;;;;;;;15.25;100.00;100978.59;7384830;19;20402;-59
2022/06/14 09:47:41;;;;;;;6.73;2.17;;;;;;;15.11;100.00;100978.22;7393437;19;20725;-59
2022/06/14 09:50:38;;;;;;;9.07;2.17;;;;;;;15.28;100.00;100974.31;7382280;19;20439;-57
2022/06/14 09:53:40;;;;;;;6.87;1.80;;;;;;;15.29;100.00;100981.28;7387084;19;20394;-58
2022/06/14 09:56:32;;;;;;;9.70;1.97;;;;;;;15.23;100.00;100982.00;7391362;19;20429;-58
2022/06/14 09:59:16;;;;;;;6.97;1.50;;;;;;;15.53;100.00;100987.09;7387360;19;20883;-58
2022/06/14 10:01:52;;;;;;;8.37;1.77;;;;;;;15.54;100.00;100985.38;7392829;19;20935;-56
2022/06/14 10:04:40;;;;;;;4.93;1.50;;;;;;;15.53;100.00;100988.81;7386712;19;21130;-58
2022/06/14 10:07:28;;;;;;;8.87;2.40;;;;;;;15.49;100.00;100989.59;7392669;19;20382;-59
2022/06/14 10:10:11;;;;;;;6.43;1.70;;;;;;;15.37;100.00;100990.13;7384021;19;20418;-58
2022/06/14 10:13:12;;;;;;;8.03;1.90;;;;;;;15.37;100.00;100997.94;7393217;19;20396;-57
2022/06/14 10:15:49;;;;;;;8.77;1.77;;;;;;;15.34;100.00;101010.88;7391691;19;20402;-59
2022/06/14 10:18:44;;;;;;;5.43;1.73;;;;;;;15.51;100.00;101009.59;7386100;19;20417;-59
2022/06/14 10:21:20;;;;;;;6.53;1.87;;;;;;;15.51;100.00;101001.78;7395327;19;20441;-58
2022/06/14 10:24:05;;;;;;;9.87;2.53;;;;;;;15.60;100.00;101010.66;7391757;19;20866;-59
2022/06/14 10:29:38;;;;;;;8.03;1.77;;;;;;;15.82;100.00;101003.34;7391140;19;20453;-57
2022/06/14 10:32:31;;;;;;;6.07;2.00;;;;;;;15.64;100.00;101009.91;7403618;19;20385;-58
2022/06/14 10:35:06;;;;;;;11.67;2.20;;;;;;;15.59;100.00;101014.09;7392261;19;20417;-59
2022/06/14 10:37:50;;;;;;;7.20;2.47;;;;;;;15.54;100.00;101019.19;7399304;19;20402;-59
2022/06/14 10:40:37;;;;;;;5.73;1.50;;;;;;;15.63;100.00;101011.59;7388563;19;20489;-58
2022/06/14 10:43:12;;;;;;;11.20;2.20;;;;;;;15.70;100.00;101017.84;7392864;19;20382;-60
2022/06/14 10:45:55;;;;;;;9.70;1.80;;;;;;;15.90;100.00;101018.31;7398765;19;20471;-59
2022/06/14 10:48:50;;;;;;;6.30;1.60;;;;;;;15.93;100.00;101013.22;7390294;19;20789;-59
2022/06/14 10:51:35;;;;;;;4.20;1.30;;;;;;;16.04;100.00;101016.06;7401338;19;20424;-57
2022/06/14 10:54:15;;;;;;;6.23;1.67;;;;;;;16.33;100.00;101021.09;7390304;19;20418;-56
2022/06/14 10:56:59;;;;;;;8.00;1.77;;;;;;;16.50;100.00;101015.34;7398643;19;20795;-58
2022/06/14 10:59:42;;;;;;;6.47;1.60;;;;;;;16.67;100.00;101014.81;7390789;19;20465;-58
2022/06/14 11:02:20;;;;;;;9.33;1.67;;;;;;;16.37;100.00;101026.34;7398345;19;20917;-56
2022/06/14 11:04:55;;;;;;;9.40;2.10;;;;;;;16.70;100.00;101017.47;7391593;19;20440;-59
2022/06/14 11:08:00;;;;;;;5.80;1.50;;;;;;;16.89;100.00;101026.56;7398911;19;20396;-56
2022/06/14 11:10:44;;;;;;;7.40;1.50;;;;;;;16.62;100.00;101032.97;7388157;19;20445;-59
2022/06/14 11:13:22;;;;;;;6.83;1.37;;;;;;;16.42;100.00;101028.19;7390369;19;20411;-58
2022/06/14 11:15:54;;;;;;;10.30;1.70;;;;;;;16.31;100.00;101038.38;7397315;19;20457;-57
2022/06/14 11:18:39;;;;;;;6.30;1.43;;;;;;;16.38;100.00;101034.19;7394473;19;20418;-57
2022/06/14 11:21:20;;;;;;;4.00;1.23;;;;;;;16.33;100.00;101028.00;7394939;19;20415;-59
2022/06/14 11:23:57;;;;;;;95.17;31.33;;;;;;;16.40;100.00;101036.84;7390728;19;20887;-57
2022/06/14 11:26:34;;;;;;;25.33;8.60;;;;;;;16.38;100.00;101035.91;7401753;19;21262;-59
2022/06/14 11:29:09;;;;;;;5.80;1.20;;;;;;;16.49;100.00;101068.28;7389467;19;20492;-58
2022/06/14 11:31:45;;;;;;;41.67;12.63;;;;;;;16.92;100.00;101060.50;7397752;19;20385;-58
2022/06/14 11:34:31;;;;;;;6.77;2.83;;;;;;;16.76;100.00;101069.72;7390234;19;20430;-58
2022/06/14 11:37:18;;;;;;;7.60;1.73;;;;;;;16.55;100.00;101076.22;7397512;19;20910;-56
2022/06/14 11:39:50;;;;;;;26.70;7.27;;;;;;;16.43;100.00;101071.63;7387106;19;20436;-59
2022/06/14 11:42:27;;;;;;;9.83;2.93;;;;;;;16.62;100.00;101055.53;7396814;19;20402;-58
2022/06/14 11:45:22;;;;;;;4.70;1.37;;;;;;;16.77;100.00;101068.84;7390691;19;20504;-59
2022/06/14 11:47:56;;;;;;;8.67;1.97;;;;;;;16.52;100.00;101081.38;7396110;19;20412;-59
2022/06/14 11:50:36;;;;;;;14.77;8.90;;;;;;;16.99;100.00;101048.47;7387143;19;20425;-58
2022/06/14 11:53:19;;;;;;;13.43;3.87;;;;;;;17.14;100.00;101077.47;7392006;19;20899;-61
2022/06/14 11:55:54;;;;;;;13.57;3.30;;;;;;;16.89;100.00;101083.91;7397474;19;20394;-59
2022/06/14 11:58:36;;;;;;;6.80;2.30;;;;;;;16.85;100.00;101080.34;7388671;19;20396;-58
2022/06/14 12:01:25;;;;;;;5.10;1.50;;;;;;;16.76;100.00;101082.75;7394073;19;20775;-58
2022/06/14 12:04:07;;;;;;;7.53;1.63;;;;;;;16.67;100.00;101066.94;7392651;19;20440;-59
2022/06/14 12:06:44;;;;;;;8.90;1.97;;;;;;;16.47;100.00;101070.84;7396582;19;20932;-58
2022/06/14 12:09:26;;;;;;;4.00;1.30;;;;;;;16.38;100.00;101072.34;7386579;19;20431;-58
2022/06/14 12:11:58;;;;;;;6.43;2.50;;;;;;;16.43;100.00;101076.84;7396872;19;20388;-59
2022/06/14 12:14:59;;;;;;;3.57;1.17;;;;;;;16.78;100.00;101108.84;7389434;19;20441;-58